sensor_id;sensor_type;location;lat;lon;timestamp;pressure;altitude;pressure_sealevel;temperature;humidity
79150;BME280;68563;45.644;13.782;2023-08-12T00:01:47;101599.19;;;24.76;48.82
79150;BME280;68563;45.644;13.782;2023-08-12T00:04:12;101605.50;;;24.73;48.77
79150;BME280;68563;45.644;13.782;2023-08-12T00:06:41;101607.88;;;24.78;48.46
79150;BME280;68563;45.644;13.782;2023-08-12T00:09:06;101604.56;;;24.74;48.56
79150;BME280;68563;45.644;13.782;2023-08-12T00:11:33;101603.97;;;24.69;49.17
79150;BME280;68563;45.644;13.782;2023-08-12T00:13:59;101597.66;;;24.72;48.91
79150;BME280;68563;45.644;13.782;2023-08-12T00:16:24;101603.63;;;24.75;48.58
79150;BME280;68563;45.644;13.782;2023-08-12T00:18:50;101599.25;;;24.74;48.54
79150;BME280;68563;45.644;13.782;2023-08-12T00:21:15;101596.88;;;24.69;48.35
79150;BME280;68563;45.644;13.782;2023-08-12T00:23:41;101588.19;;;24.67;48.65
79150;BME280;68563;45.644;13.782;2023-08-12T00:26:07;101590.91;;;24.66;48.98
79150;BME280;68563;45.644;13.782;2023-08-12T00:28:33;101583.03;;;24.64;48.96
79150;BME280;68563;45.644;13.782;2023-08-12T00:30:59;101586.38;;;24.68;48.74
79150;BME280;68563;45.644;13.782;2023-08-12T00:33:24;101591.78;;;24.66;48.79
79150;BME280;68563;45.644;13.782;2023-08-12T00:35:50;101590.91;;;24.66;49.17
79150;BME280;68563;45.644;13.782;2023-08-12T00:38:15;101586.47;;;24.66;49.91
79150;BME280;68563;45.644;13.782;2023-08-12T00:40:41;101585.88;;;24.61;50.29
79150;BME280;68563;45.644;13.782;2023-08-12T00:43:06;101583.22;;;24.61;49.15
79150;BME280;68563;45.644;13.782;2023-08-12T00:45:33;101580.63;;;24.60;49.60
79150;BME280;68563;45.644;13.782;2023-08-12T00:47:59;101590.19;;;24.62;50.30
79150;BME280;68563;45.644;13.782;2023-08-12T00:50:25;101586.22;;;24.55;50.33
79150;BME280;68563;45.644;13.782;2023-08-12T00:52:51;101585.44;;;24.53;50.35
79150;BME280;68563;45.644;13.782;2023-08-12T00:55:17;101584.56;;;24.52;50.48
79150;BME280;68563;45.644;13.782;2023-08-12T00:57:43;101586.72;;;24.46;50.47
79150;BME280;68563;45.644;13.782;2023-08-12T01:00:08;101587.41;;;24.49;50.40
79150;BME280;68563;45.644;13.782;2023-08-12T01:02:34;101582.22;;;24.48;50.67
79150;BME280;68563;45.644;13.782;2023-08-12T01:05:00;101584.78;;;24.49;50.28
79150;BME280;68563;45.644;13.782;2023-08-12T01:07:25;101580.50;;;24.47;50.52
79150;BME280;68563;45.644;13.782;2023-08-12T01:09:50;101591.94;;;24.47;50.70
79150;BME280;68563;45.644;13.782;2023-08-12T01:12:24;101579.88;;;24.42;50.60
79150;BME280;68563;45.644;13.782;2023-08-12T01:17:20;101582.53;;;24.42;50.37
79150;BME280;68563;45.644;13.782;2023-08-12T01:19:47;101588.72;;;24.42;50.47
79150;BME280;68563;45.644;13.782;2023-08-12T01:22:14;101588.72;;;24.42;50.27
79150;BME280;68563;45.644;13.782;2023-08-12T01:24:42;101593.91;;;24.44;50.55
79150;BME280;68563;45.644;13.782;2023-08-12T01:27:09;101591.34;;;24.42;50.97
79150;BME280;68563;45.644;13.782;2023-08-12T01:29:38;101588.88;;;24.39;51.26
79150;BME280;68563;45.644;13.782;2023-08-12T01:32:25;101590.09;;;24.33;51.45
79150;BME280;68563;45.644;13.782;2023-08-12T01:35:06;101593.56;;;24.34;51.58
79150;BME280;68563;45.644;13.782;2023-08-12T01:37:35;101584.03;;;24.31;51.75
79150;BME280;68563;45.644;13.782;2023-08-12T01:40:02;101583.09;;;24.32;51.70
79150;BME280;68563;45.644;13.782;2023-08-12T01:42:32;101591.03;;;24.32;51.92
79150;BME280;68563;45.644;13.782;2023-08-12T01:44:59;101590.59;;;24.24;52.03
79150;BME280;68563;45.644;13.782;2023-08-12T01:47:26;101587.53;;;24.16;51.67
79150;BME280;68563;45.644;13.782;2023-08-12T01:49:52;101583.25;;;24.13;51.64
79150;BME280;68563;45.644;13.782;2023-08-12T01:52:17;101564.31;;;24.05;51.79
79150;BME280;68563;45.644;13.782;2023-08-12T01:54:43;101579.84;;;23.95;52.26
79150;BME280;68563;45.644;13.782;2023-08-12T01:57:08;101581.69;;;23.93;52.01
79150;BME280;68563;45.644;13.782;2023-08-12T01:59:36;101581.25;;;23.85;52.47
79150;BME280;68563;45.644;13.782;2023-08-12T02:02:02;101575.97;;;23.85;52.02
79150;BME280;68563;45.644;13.782;2023-08-12T02:04:28;101575.09;;;23.84;52.04
79150;BME280;68563;45.644;13.782;2023-08-12T02:06:54;101565.44;;;23.83;51.28
79150;BME280;68563;45.644;13.782;2023-08-12T02:09:20;101568.53;;;23.92;51.51
79150;BME280;68563;45.644;13.782;2023-08-12T02:11:46;101562.06;;;23.81;51.37
79150;BME280;68563;45.644;13.782;2023-08-12T02:14:11;101566.13;;;23.87;51.10
79150;BME280;68563;45.644;13.782;2023-08-12T02:16:36;101558.19;;;23.87;51.08
79150;BME280;68563;45.644;13.782;2023-08-12T02:19:02;101557.09;;;23.75;51.38
79150;BME280;68563;45.644;13.782;2023-08-12T02:21:27;101560.59;;;23.76;50.99
79150;BME280;68563;45.644;13.782;2023-08-12T02:23:53;101565.53;;;23.66;51.16
79150;BME280;68563;45.644;13.782;2023-08-12T02:26:18;101564.59;;;23.83;50.65
79150;BME280;68563;45.644;13.782;2023-08-12T02:28:44;101562.41;;;23.75;50.97
79150;BME280;68563;45.644;13.782;2023-08-12T02:31:09;101552.41;;;23.64;51.17
79150;BME280;68563;45.644;13.782;2023-08-12T02:33:34;101540.69;;;23.52;51.22
79150;BME280;68563;45.644;13.782;2023-08-12T02:36:00;101560.72;;;23.56;51.50
79150;BME280;68563;45.644;13.782;2023-08-12T02:38:25;101547.59;;;23.55;51.54
79150;BME280;68563;45.644;13.782;2023-08-12T02:40:51;101561.94;;;23.51;51.35
79150;BME280;68563;45.644;13.782;2023-08-12T02:43:17;101547.06;;;23.48;51.38
79150;BME280;68563;45.644;13.782;2023-08-12T02:45:42;101550.72;;;23.46;51.64
79150;BME280;68563;45.644;13.782;2023-08-12T02:48:10;101554.16;;;23.48;51.87
79150;BME280;68563;45.644;13.782;2023-08-12T02:50:35;101548.25;;;23.42;52.08
79150;BME280;68563;45.644;13.782;2023-08-12T02:53:01;101549.38;;;23.54;52.17
79150;BME280;68563;45.644;13.782;2023-08-12T02:55:26;101544.78;;;23.58;51.88
79150;BME280;68563;45.644;13.782;2023-08-12T02:57:52;101535.31;;;23.54;51.80
79150;BME280;68563;45.644;13.782;2023-08-12T03:00:17;101536.84;;;23.58;51.70
79150;BME280;68563;45.644;13.782;2023-08-12T03:02:43;101546.06;;;23.51;52.07
79150;BME280;68563;45.644;13.782;2023-08-12T03:05:08;101536.94;;;23.56;51.90
79150;BME280;68563;45.644;13.782;2023-08-12T03:07:34;101542.91;;;23.60;51.35
79150;BME280;68563;45.644;13.782;2023-08-12T03:09:59;101538.72;;;23.56;51.60
79150;BME280;68563;45.644;13.782;2023-08-12T03:12:25;101541.44;;;23.54;51.66
79150;BME280;68563;45.644;13.782;2023-08-12T03:14:50;101536.66;;;23.45;51.79
79150;BME280;68563;45.644;13.782;2023-08-12T03:17:16;101545.44;;;23.46;51.91
79150;BME280;68563;45.644;13.782;2023-08-12T03:19:41;101532.09;;;23.31;52.03
79150;BME280;68563;45.644;13.782;2023-08-12T03:22:07;101540.81;;;23.33;52.25
79150;BME280;68563;45.644;13.782;2023-08-12T03:24:32;101541.13;;;23.27;52.27
79150;BME280;68563;45.644;13.782;2023-08-12T03:26:58;101543.19;;;23.22;52.38
79150;BME280;68563;45.644;13.782;2023-08-12T03:29:24;101550.78;;;23.28;52.34
79150;BME280;68563;45.644;13.782;2023-08-12T03:31:49;101552.91;;;23.37;52.07
79150;BME280;68563;45.644;13.782;2023-08-12T03:34:14;101545.44;;;23.46;51.88
79150;BME280;68563;45.644;13.782;2023-08-12T03:36:40;101554.94;;;23.50;52.11
79150;BME280;68563;45.644;13.782;2023-08-12T03:39:06;101553.47;;;23.44;51.99
79150;BME280;68563;45.644;13.782;2023-08-12T03:41:31;101548.41;;;23.39;51.75
79150;BME280;68563;45.644;13.782;2023-08-12T03:43:57;101549.56;;;23.34;51.73
79150;BME280;68563;45.644;13.782;2023-08-12T03:46:22;101544.38;;;23.32;52.17
79150;BME280;68563;45.644;13.782;2023-08-12T03:48:48;101544.97;;;23.37;52.07
79150;BME280;68563;45.644;13.782;2023-08-12T03:51:13;101538.94;;;23.35;52.26
79150;BME280;68563;45.644;13.782;2023-08-12T03:53:38;101553.91;;;23.52;51.81
79150;BME280;68563;45.644;13.782;2023-08-12T03:56:04;101551.94;;;23.40;51.84
79150;BME280;68563;45.644;13.782;2023-08-12T03:58:29;101552.75;;;23.40;51.94
79150;BME280;68563;45.644;13.782;2023-08-12T04:00:55;101547.34;;;23.26;52.32
79150;BME280;68563;45.644;13.782;2023-08-12T04:03:20;101548.81;;;23.32;52.39
79150;BME280;68563;45.644;13.782;2023-08-12T04:05:49;101550.59;;;23.31;52.70
79150;BME280;68563;45.644;13.782;2023-08-12T04:08:18;101552.41;;;23.31;52.45
79150;BME280;68563;45.644;13.782;2023-08-12T04:10:47;101550.59;;;23.31;52.15
79150;BME280;68563;45.644;13.782;2023-08-12T04:13:13;101544.00;;;23.22;52.31
79150;BME280;68563;45.644;13.782;2023-08-12T04:15:40;101544.09;;;23.21;52.22
79150;BME280;68563;45.644;13.782;2023-08-12T04:18:05;101539.03;;;23.16;52.76
79150;BME280;68563;45.644;13.782;2023-08-12T04:20:31;101549.81;;;23.11;52.53
79150;BME280;68563;45.644;13.782;2023-08-12T04:22:56;101543.94;;;23.06;52.80
79150;BME280;68563;45.644;13.782;2023-08-12T04:25:22;101545.66;;;23.07;52.83
79150;BME280;68563;45.644;13.782;2023-08-12T04:27:47;101550.84;;;23.09;52.67
79150;BME280;68563;45.644;13.782;2023-08-12T04:30:15;101538.88;;;23.02;52.67
79150;BME280;68563;45.644;13.782;2023-08-12T04:32:41;101553.09;;;22.99;52.99
79150;BME280;68563;45.644;13.782;2023-08-12T04:35:07;101540.81;;;22.98;52.79
79150;BME280;68563;45.644;13.782;2023-08-12T04:37:32;101545.88;;;23.03;52.63
79150;BME280;68563;45.644;13.782;2023-08-12T04:39:58;101543.59;;;23.13;52.56
79150;BME280;68563;45.644;13.782;2023-08-12T04:42:23;101545.72;;;23.23;52.44
79150;BME280;68563;45.644;13.782;2023-08-12T04:44:49;101540.81;;;23.33;52.27
79150;BME280;68563;45.644;13.782;2023-08-12T04:47:14;101544.84;;;23.40;52.15
79150;BME280;68563;45.644;13.782;2023-08-12T04:49:40;101551.63;;;23.62;51.60
79150;BME280;68563;45.644;13.782;2023-08-12T04:52:05;101548.06;;;23.79;51.27
79150;BME280;68563;45.644;13.782;2023-08-12T04:54:32;101554.06;;;23.99;50.94
79150;BME280;68563;45.644;13.782;2023-08-12T04:56:58;101550.81;;;24.10;50.49
79150;BME280;68563;45.644;13.782;2023-08-12T04:59:24;101549.69;;;24.14;50.52
79150;BME280;68563;45.644;13.782;2023-08-12T05:01:50;101546.88;;;24.17;50.45
79150;BME280;68563;45.644;13.782;2023-08-12T05:04:15;101554.66;;;24.20;50.47
79150;BME280;68563;45.644;13.782;2023-08-12T05:06:40;101548.25;;;24.24;49.86
79150;BME280;68563;45.644;13.782;2023-08-12T05:09:06;101557.19;;;24.37;49.80
79150;BME280;68563;45.644;13.782;2023-08-12T05:11:31;101553.59;;;24.38;49.73
79150;BME280;68563;45.644;13.782;2023-08-12T05:13:57;101548.72;;;24.47;49.57
79150;BME280;68563;45.644;13.782;2023-08-12T05:16:22;101549.31;;;24.52;49.62
79150;BME280;68563;45.644;13.782;2023-08-12T05:18:47;101543.66;;;24.58;49.45
79150;BME280;68563;45.644;13.782;2023-08-12T05:21:13;101544.22;;;24.63;49.45
79150;BME280;68563;45.644;13.782;2023-08-12T05:23:38;101544.66;;;24.72;49.16
79150;BME280;68563;45.644;13.782;2023-08-12T05:26:03;101546.94;;;24.78;49.32
79150;BME280;68563;45.644;13.782;2023-08-12T05:28:29;101543.19;;;24.82;49.09
79150;BME280;68563;45.644;13.782;2023-08-12T05:30:54;101540.06;;;24.90;48.90
79150;BME280;68563;45.644;13.782;2023-08-12T05:33:21;101553.06;;;24.94;48.85
79150;BME280;68563;45.644;13.782;2023-08-12T05:35:49;101549.75;;;25.05;48.74
79150;BME280;68563;45.644;13.782;2023-08-12T05:38:14;101539.84;;;25.09;48.57
79150;BME280;68563;45.644;13.782;2023-08-12T05:40:40;101549.78;;;25.20;48.38
79150;BME280;68563;45.644;13.782;2023-08-12T05:43:06;101544.94;;;25.26;48.13
79150;BME280;68563;45.644;13.782;2023-08-12T05:45:31;101546.28;;;25.33;48.04
79150;BME280;68563;45.644;13.782;2023-08-12T05:47:57;101543.94;;;25.43;47.85
79150;BME280;68563;45.644;13.782;2023-08-12T05:50:22;101544.41;;;25.50;48.08
79150;BME280;68563;45.644;13.782;2023-08-12T05:52:48;101538.06;;;25.53;47.98
79150;BME280;68563;45.644;13.782;2023-08-12T05:55:13;101539.66;;;25.55;47.90
79150;BME280;68563;45.644;13.782;2023-08-12T05:57:39;101546.19;;;25.64;47.59
79150;BME280;68563;45.644;13.782;2023-08-12T06:00:05;101547.50;;;25.71;47.36
79150;BME280;68563;45.644;13.782;2023-08-12T06:02:31;101552.16;;;25.68;47.54
79150;BME280;68563;45.644;13.782;2023-08-12T06:04:56;101539.38;;;25.60;47.58
79150;BME280;68563;45.644;13.782;2023-08-12T06:07:22;101546.97;;;25.66;47.38
79150;BME280;68563;45.644;13.782;2023-08-12T06:09:49;101543.81;;;25.74;47.46
79150;BME280;68563;45.644;13.782;2023-08-12T06:12:15;101536.97;;;25.84;46.97
79150;BME280;68563;45.644;13.782;2023-08-12T06:14:40;101540.72;;;25.94;46.80
79150;BME280;68563;45.644;13.782;2023-08-12T06:17:06;101540.91;;;26.06;46.76
79150;BME280;68563;45.644;13.782;2023-08-12T06:19:31;101543.38;;;26.09;46.70
79150;BME280;68563;45.644;13.782;2023-08-12T06:21:57;101540.25;;;26.02;47.02
79150;BME280;68563;45.644;13.782;2023-08-12T06:24:22;101543.66;;;26.04;47.08
79150;BME280;68563;45.644;13.782;2023-08-12T06:26:47;101528.59;;;26.05;47.23
79150;BME280;68563;45.644;13.782;2023-08-12T06:29:13;101538.13;;;26.22;47.15
79150;BME280;68563;45.644;13.782;2023-08-12T06:31:39;101547.28;;;26.31;46.67
79150;BME280;68563;45.644;13.782;2023-08-12T06:34:04;101545.09;;;26.37;47.14
79150;BME280;68563;45.644;13.782;2023-08-12T06:36:29;101538.31;;;26.46;46.63
79150;BME280;68563;45.644;13.782;2023-08-12T06:38:55;101542.81;;;26.58;46.25
79150;BME280;68563;45.644;13.782;2023-08-12T06:41:20;101541.53;;;26.64;46.10
79150;BME280;68563;45.644;13.782;2023-08-12T06:43:46;101531.75;;;26.65;46.48
79150;BME280;68563;45.644;13.782;2023-08-12T06:46:11;101538.13;;;26.62;46.48
79150;BME280;68563;45.644;13.782;2023-08-12T06:48:37;101540.72;;;26.64;46.56
79150;BME280;68563;45.644;13.782;2023-08-12T06:51:02;101529.66;;;26.70;46.28
79150;BME280;68563;45.644;13.782;2023-08-12T06:53:35;101529.91;;;26.80;46.34
79150;BME280;68563;45.644;13.782;2023-08-12T06:56:00;101528.31;;;26.90;46.02
79150;BME280;68563;45.644;13.782;2023-08-12T06:58:26;101524.28;;;26.97;45.83
79150;BME280;68563;45.644;13.782;2023-08-12T07:00:51;101524.91;;;27.01;45.50
79150;BME280;68563;45.644;13.782;2023-08-12T07:03:18;101528.66;;;27.11;45.34
79150;BME280;68563;45.644;13.782;2023-08-12T07:05:43;101523.09;;;27.14;45.15
79150;BME280;68563;45.644;13.782;2023-08-12T07:08:09;101521.00;;;27.19;45.49
79150;BME280;68563;45.644;13.782;2023-08-12T07:10:38;101521.84;;;27.20;45.26
79150;BME280;68563;45.644;13.782;2023-08-12T07:13:03;101527.78;;;27.23;45.61
79150;BME280;68563;45.644;13.782;2023-08-12T07:15:29;101522.16;;;27.28;45.78
79150;BME280;68563;45.644;13.782;2023-08-12T07:17:54;101518.44;;;27.31;45.78
79150;BME280;68563;45.644;13.782;2023-08-12T07:20:19;101524.81;;;27.41;45.34
79150;BME280;68563;45.644;13.782;2023-08-12T07:22:45;101516.94;;;27.52;45.00
79150;BME280;68563;45.644;13.782;2023-08-12T07:25:10;101523.41;;;27.61;44.89
79150;BME280;68563;45.644;13.782;2023-08-12T07:27:36;101520.72;;;27.74;44.69
79150;BME280;68563;45.644;13.782;2023-08-12T07:30:01;101528.97;;;27.82;44.77
79150;BME280;68563;45.644;13.782;2023-08-12T07:32:28;101532.78;;;27.91;44.53
79150;BME280;68563;45.644;13.782;2023-08-12T07:34:53;101521.44;;;28.00;43.92
79150;BME280;68563;45.644;13.782;2023-08-12T07:37:19;101523.34;;;28.11;44.04
79150;BME280;68563;45.644;13.782;2023-08-12T07:39:45;101527.25;;;28.18;43.74
79150;BME280;68563;45.644;13.782;2023-08-12T07:42:11;101523.31;;;28.24;42.83
79150;BME280;68563;45.644;13.782;2023-08-12T07:44:37;101513.47;;;28.25;43.11
79150;BME280;68563;45.644;13.782;2023-08-12T07:47:03;101524.41;;;28.33;42.87
79150;BME280;68563;45.644;13.782;2023-08-12T07:49:28;101523.13;;;28.39;42.78
79150;BME280;68563;45.644;13.782;2023-08-12T07:51:53;101522.03;;;28.41;42.89
79150;BME280;68563;45.644;13.782;2023-08-12T07:54:19;101529.81;;;28.44;42.50
79150;BME280;68563;45.644;13.782;2023-08-12T07:56:44;101532.22;;;28.47;42.46
79150;BME280;68563;45.644;13.782;2023-08-12T07:59:10;101532.97;;;28.49;42.35
79150;BME280;68563;45.644;13.782;2023-08-12T08:01:35;101535.03;;;28.57;42.75
79150;BME280;68563;45.644;13.782;2023-08-12T08:04:01;101534.91;;;28.59;42.28
79150;BME280;68563;45.644;13.782;2023-08-12T08:06:26;101525.00;;;28.61;42.62
79150;BME280;68563;45.644;13.782;2023-08-12T08:08:54;101528.41;;;28.63;42.65
79150;BME280;68563;45.644;13.782;2023-08-12T08:11:20;101521.84;;;28.67;42.69
79150;BME280;68563;45.644;13.782;2023-08-12T08:13:46;101517.91;;;28.73;42.36
79150;BME280;68563;45.644;13.782;2023-08-12T08:16:11;101523.03;;;28.76;43.02
79150;BME280;68563;45.644;13.782;2023-08-12T08:18:37;101526.31;;;28.79;43.11
79150;BME280;68563;45.644;13.782;2023-08-12T08:21:02;101522.91;;;28.77;43.31
79150;BME280;68563;45.644;13.782;2023-08-12T08:23:27;101527.25;;;28.78;43.24
79150;BME280;68563;45.644;13.782;2023-08-12T08:25:53;101524.22;;;28.83;43.74
79150;BME280;68563;45.644;13.782;2023-08-12T08:28:18;101534.03;;;28.83;44.05
79150;BME280;68563;45.644;13.782;2023-08-12T08:30:43;101529.81;;;28.80;44.08
79150;BME280;68563;45.644;13.782;2023-08-12T08:33:09;101532.34;;;28.81;44.62
79150;BME280;68563;45.644;13.782;2023-08-12T08:35:34;101535.97;;;28.80;44.63
79150;BME280;68563;45.644;13.782;2023-08-12T08:38:00;101541.56;;;28.77;44.39
79150;BME280;68563;45.644;13.782;2023-08-12T08:40:26;101535.00;;;28.81;44.17
79150;BME280;68563;45.644;13.782;2023-08-12T08:42:52;101543.97;;;28.80;44.46
79150;BME280;68563;45.644;13.782;2023-08-12T08:45:20;101540.47;;;28.80;43.97
79150;BME280;68563;45.644;13.782;2023-08-12T08:47:47;101537.44;;;28.85;44.10
79150;BME280;68563;45.644;13.782;2023-08-12T08:50:13;101543.97;;;28.80;44.11
79150;BME280;68563;45.644;13.782;2023-08-12T08:52:39;101531.38;;;28.83;43.86
79150;BME280;68563;45.644;13.782;2023-08-12T08:55:07;101540.13;;;28.85;44.06
79150;BME280;68563;45.644;13.782;2023-08-12T08:57:33;101546.16;;;28.87;44.37
79150;BME280;68563;45.644;13.782;2023-08-12T08:59:58;101545.44;;;28.85;44.71
79150;BME280;68563;45.644;13.782;2023-08-12T09:02:24;101540.34;;;28.81;44.37
79150;BME280;68563;45.644;13.782;2023-08-12T09:04:50;101544.22;;;28.77;44.46
79150;BME280;68563;45.644;13.782;2023-08-12T09:07:15;101550.16;;;28.81;44.75
79150;BME280;68563;45.644;13.782;2023-08-12T09:09:44;101542.38;;;28.78;44.79
79150;BME280;68563;45.644;13.782;2023-08-12T09:12:13;101534.22;;;28.68;45.60
79150;BME280;68563;45.644;13.782;2023-08-12T09:14:39;101539.09;;;28.74;45.14
79150;BME280;68563;45.644;13.782;2023-08-12T09:17:04;101545.66;;;28.70;45.20
79150;BME280;68563;45.644;13.782;2023-08-12T09:19:30;101545.84;;;28.67;45.61
79150;BME280;68563;45.644;13.782;2023-08-12T09:21:55;101537.81;;;28.56;46.06
79150;BME280;68563;45.644;13.782;2023-08-12T09:24:25;101539.53;;;28.57;45.77
79150;BME280;68563;45.644;13.782;2023-08-12T09:26:54;101534.19;;;28.57;46.44
79150;BME280;68563;45.644;13.782;2023-08-12T09:29:23;101541.69;;;28.52;46.15
79150;BME280;68563;45.644;13.782;2023-08-12T09:31:52;101540.97;;;28.49;46.58
79150;BME280;68563;45.644;13.782;2023-08-12T09:34:17;101534.25;;;28.44;46.46
79150;BME280;68563;45.644;13.782;2023-08-12T09:36:43;101530.97;;;28.40;46.19
79150;BME280;68563;45.644;13.782;2023-08-12T09:39:09;101531.44;;;28.34;46.88
79150;BME280;68563;45.644;13.782;2023-08-12T09:41:34;101530.09;;;28.28;46.65
79150;BME280;68563;45.644;13.782;2023-08-12T09:44:02;101533.34;;;28.21;46.95
79150;BME280;68563;45.644;13.782;2023-08-12T09:46:28;101524.84;;;28.15;46.69
79150;BME280;68563;45.644;13.782;2023-08-12T09:48:53;101514.66;;;28.09;46.50
79150;BME280;68563;45.644;13.782;2023-08-12T09:51:19;101525.19;;;28.11;46.91
79150;BME280;68563;45.644;13.782;2023-08-12T09:53:47;101532.53;;;28.07;46.64
79150;BME280;68563;45.644;13.782;2023-08-12T09:56:17;101525.09;;;27.99;46.66
79150;BME280;68563;45.644;13.782;2023-08-12T09:58:44;101525.09;;;27.99;46.98
79150;BME280;68563;45.644;13.782;2023-08-12T10:01:12;101534.13;;;27.97;47.03
79150;BME280;68563;45.644;13.782;2023-08-12T10:03:39;101516.91;;;27.90;46.94
79150;BME280;68563;45.644;13.782;2023-08-12T10:06:05;101530.97;;;27.92;46.83
79150;BME280;68563;45.644;13.782;2023-08-12T10:08:32;101521.19;;;27.92;46.06
79150;BME280;68563;45.644;13.782;2023-08-12T10:10:58;101521.28;;;27.91;46.30
79150;BME280;68563;45.644;13.782;2023-08-12T10:13:24;101520.66;;;27.87;45.76
79150;BME280;68563;45.644;13.782;2023-08-12T10:15:50;101518.84;;;27.88;45.85
79150;BME280;68563;45.644;13.782;2023-08-12T10:18:16;101509.38;;;27.83;45.85
79150;BME280;68563;45.644;13.782;2023-08-12T10:20:44;101512.66;;;27.87;44.97
79150;BME280;68563;45.644;13.782;2023-08-12T10:23:16;101511.09;;;27.84;45.45
79150;BME280;68563;45.644;13.782;2023-08-12T10:25:43;101512.28;;;27.80;44.97
79150;BME280;68563;45.644;13.782;2023-08-12T10:28:09;101518.84;;;27.88;44.21
79150;BME280;68563;45.644;13.782;2023-08-12T10:30:35;101511.19;;;27.83;43.70
79150;BME280;68563;45.644;13.782;2023-08-12T10:33:01;101506.72;;;27.83;44.37
79150;BME280;68563;45.644;13.782;2023-08-12T10:35:46;101506.00;;;27.81;44.65
79150;BME280;68563;45.644;13.782;2023-08-12T10:38:19;101503.97;;;27.85;44.72
79150;BME280;68563;45.644;13.782;2023-08-12T10:40:45;101501.13;;;27.75;44.96
79150;BME280;68563;45.644;13.782;2023-08-12T10:43:12;101496.75;;;27.74;44.82
79150;BME280;68563;45.644;13.782;2023-08-12T10:45:49;101504.28;;;27.80;44.99
79150;BME280;68563;45.644;13.782;2023-08-12T10:48:21;101499.31;;;27.76;45.22
79150;BME280;68563;45.644;13.782;2023-08-12T10:50:59;101494.09;;;27.74;44.65
79150;BME280;68563;45.644;13.782;2023-08-12T10:53:26;101493.03;;;27.77;44.81
79150;BME280;68563;45.644;13.782;2023-08-12T10:56:01;101491.19;;;27.77;44.40
79150;BME280;68563;45.644;13.782;2023-08-12T10:58:34;101491.06;;;27.79;44.50
79150;BME280;68563;45.644;13.782;2023-08-12T11:01:00;101474.06;;;27.81;44.30
79150;BME280;68563;45.644;13.782;2023-08-12T11:03:26;101477.19;;;27.75;44.89
79150;BME280;68563;45.644;13.782;2023-08-12T11:05:53;101469.41;;;27.72;45.07
79150;BME280;68563;45.644;13.782;2023-08-12T11:08:24;101472.56;;;27.77;45.23
79150;BME280;68563;45.644;13.782;2023-08-12T11:10:52;101470.66;;;27.79;45.27
79150;BME280;68563;45.644;13.782;2023-08-12T11:13:19;101466.91;;;27.82;45.17
79150;BME280;68563;45.644;13.782;2023-08-12T11:15:44;101474.06;;;27.81;45.51
79150;BME280;68563;45.644;13.782;2023-08-12T11:18:15;101470.53;;;27.81;44.90
79150;BME280;68563;45.644;13.782;2023-08-12T11:20:42;101465.31;;;27.79;45.54
79150;BME280;68563;45.644;13.782;2023-08-12T11:23:08;101468.72;;;27.81;46.00
79150;BME280;68563;45.644;13.782;2023-08-12T11:25:36;101471.28;;;27.83;45.94
79150;BME280;68563;45.644;13.782;2023-08-12T11:28:03;101468.63;;;27.83;46.04
79150;BME280;68563;45.644;13.782;2023-08-12T11:30:29;101465.09;;;27.82;45.98
79150;BME280;68563;45.644;13.782;2023-08-12T11:32:55;101468.50;;;27.84;46.39
79150;BME280;68563;45.644;13.782;2023-08-12T11:35:22;101477.44;;;27.83;45.53
79150;BME280;68563;45.644;13.782;2023-08-12T11:37:49;101468.72;;;27.81;45.52
79150;BME280;68563;45.644;13.782;2023-08-12T11:40:16;101467.03;;;27.80;45.24
79150;BME280;68563;45.644;13.782;2023-08-12T11:42:44;101459.50;;;27.74;43.88
79150;BME280;68563;45.644;13.782;2023-08-12T11:45:10;101457.91;;;27.72;45.10
79150;BME280;68563;45.644;13.782;2023-08-12T11:47:38;101463.88;;;27.75;45.39
79150;BME280;68563;45.644;13.782;2023-08-12T11:50:04;101464.59;;;27.77;45.34
79150;BME280;68563;45.644;13.782;2023-08-12T11:52:30;101463.88;;;27.75;46.09
79150;BME280;68563;45.644;13.782;2023-08-12T11:54:57;101457.69;;;27.75;46.58
79150;BME280;68563;45.644;13.782;2023-08-12T11:57:23;101447.16;;;27.73;46.98
79150;BME280;68563;45.644;13.782;2023-08-12T11:59:50;101457.06;;;27.71;46.28
79150;BME280;68563;45.644;13.782;2023-08-12T12:02:15;101444.69;;;27.70;46.47
79150;BME280;68563;45.644;13.782;2023-08-12T12:04:42;101440.78;;;27.63;46.94
79150;BME280;68563;45.644;13.782;2023-08-12T12:07:23;101446.53;;;27.69;47.30
79150;BME280;68563;45.644;13.782;2023-08-12T12:09:52;101441.22;;;27.69;47.01
79150;BME280;68563;45.644;13.782;2023-08-12T12:12:22;101442.78;;;27.72;47.00
79150;BME280;68563;45.644;13.782;2023-08-12T12:14:53;101437.47;;;27.72;47.06
79150;BME280;68563;45.644;13.782;2023-08-12T12:17:22;101438.09;;;27.76;46.66
79150;BME280;68563;45.644;13.782;2023-08-12T12:19:58;101431.19;;;27.73;46.68
79150;BME280;68563;45.644;13.782;2023-08-12T12:22:29;101430.22;;;27.74;46.94
79150;BME280;68563;45.644;13.782;2023-08-12T12:24:58;101432.66;;;27.77;46.69
79150;BME280;68563;45.644;13.782;2023-08-12T12:27:24;101429.97;;;27.77;46.72
79150;BME280;68563;45.644;13.782;2023-08-12T12:29:49;101432.88;;;27.74;45.85
79150;BME280;68563;45.644;13.782;2023-08-12T12:32:18;101433.59;;;27.76;46.54
79150;BME280;68563;45.644;13.782;2023-08-12T12:34:43;101432.97;;;27.73;46.27
79150;BME280;68563;45.644;13.782;2023-08-12T12:37:08;101425.75;;;27.75;46.42
79150;BME280;68563;45.644;13.782;2023-08-12T12:39:34;101421.72;;;27.69;46.61